KCVN/CVN METAR and TAF weather

Enter ICAO airport designator
Station Type Date Time Source
KCVN METAR 2020/07/11 03:56 UTC NOAA

KCVN 110356Z AUTO 15010KT 10SM CLR 30/12 A3010 RMK AO2 SLP132 T03000122


Station Type Date Time Source
KCVN Decoded METAR 2020/07/11 03:56 UTC NOAA

Clovis, Clovis Municipal Airport, NM, United States (KCVN) 34-26N 103-05W
Jul 10, 2020 - 11:56 PM EDT / 2020.07.11 0356 UTC
Wind: from the SSE (150 degrees) at 12 MPH (10 KT):0
Visibility: 10 mile(s):0
Sky conditions: clear
Temperature: 86.0 F (30.0 C)
Dew Point: 54.0 F (12.2 C)
Relative Humidity: 33%
Pressure (altimeter): 30.1 in. Hg (1019 hPa)
ob: KCVN 110356Z AUTO 15010KT 10SM CLR 30/12 A3010 RMK AO2 SLP132 T03000122
cycle: 4

Station Type Date Time Source
KCVN TAF UTC NOAA

Error!

Example: see airport list